Time;durP1;ratioP1;P1;durP2;ratioP2;P2;SDS_P1;SDS_P2;PMS_P1;PMS_P2;Temp;Humidity;BMP_temperature;BMP_pressure;BME280_temperature;BME280_humidity;BME280_pressure;Samples;Min_cycle;Max_cycle;Signal;HPM_P1;HPM_P2
2022/06/25 00:01:48;;;;;;;30.90;27.88;;;16.60;99.90;;;;;;5058513;28;20390;-44
2022/06/25 00:06:58;;;;;;;29.73;27.10;;;16.70;99.90;;;;;;5060943;28;20117;-45
2022/06/25 00:09:25;;;;;;;31.92;28.90;;;16.70;99.90;;;;;;5061840;28;20507;-45
2022/06/25 00:14:37;;;;;;;29.30;26.50;;;16.70;99.90;;;;;;5066021;28;20547;-47
2022/06/25 00:17:03;;;;;;;32.42;28.92;;;16.60;99.90;;;;;;5064210;28;20063;-43
2022/06/25 00:19:29;;;;;;;31.30;28.40;;;16.60;99.90;;;;;;5063491;28;20105;-45
2022/06/25 00:21:55;;;;;;;31.75;28.88;;;16.60;99.90;;;;;;5058441;28;20037;-44
2022/06/25 00:24:21;;;;;;;30.77;27.95;;;16.60;99.90;;;;;;5055848;28;20052;-45
2022/06/25 00:26:47;;;;;;;31.85;28.98;;;16.60;99.90;;;;;;5063472;28;20055;-43
2022/06/25 00:29:13;;;;;;;32.67;29.73;;;16.60;99.90;;;;;;5062794;28;20056;-46
2022/06/25 00:31:41;;;;;;;33.17;30.02;;;16.60;99.90;;;;;;5062885;28;20066;-45
2022/06/25 00:34:07;;;;;;;30.92;27.92;;;16.60;99.90;;;;;;5062077;28;20155;-46
2022/06/25 00:36:32;;;;;;;34.33;31.13;;;16.60;99.90;;;;;;5063713;28;20113;-44
2022/06/25 00:38:58;;;;;;;32.05;29.17;;;16.60;99.90;;;;;;5067015;28;20044;-45
2022/06/25 00:41:24;;;;;;;34.25;31.15;;;16.60;99.90;;;;;;5062961;28;20523;-46
2022/06/25 00:43:50;;;;;;;33.63;30.73;;;16.60;99.90;;;;;;5063388;28;20056;-46
2022/06/25 00:46:16;;;;;;;36.00;32.63;;;16.50;99.90;;;;;;5028049;28;20049;-46
2022/06/25 00:48:42;;;;;;;37.33;33.63;;;16.60;99.90;;;;;;5062318;28;20458;-44
2022/06/25 00:51:12;;;;;;;37.47;34.03;;;16.60;99.90;;;;;;5061803;28;20072;-46
2022/06/25 00:53:43;;;;;;;38.60;34.95;;;16.60;99.90;;;;;;5062075;28;20060;-45
2022/06/25 00:56:11;;;;;;;35.25;32.05;;;16.60;99.90;;;;;;5061942;28;20048;-44
2022/06/25 00:58:43;;;;;;;36.25;32.92;;;16.60;99.90;;;;;;5058977;28;20071;-45
2022/06/25 01:01:09;;;;;;;34.80;31.45;;;16.50;99.90;;;;;;5062296;28;20075;-47
2022/06/25 01:03:37;;;;;;;33.83;30.73;;;16.50;99.90;;;;;;5043917;28;20140;-47
2022/06/25 01:06:04;;;;;;;36.35;33.05;;;16.50;99.90;;;;;;5040267;28;20140;-45
2022/06/25 01:08:34;;;;;;;36.60;33.25;;;16.50;99.90;;;;;;5057743;28;20045;-46
2022/06/25 01:11:00;;;;;;;37.13;33.67;;;16.40;99.90;;;;;;5061251;28;20079;-47
2022/06/25 01:13:28;;;;;;;38.47;34.95;;;16.50;99.90;;;;;;5040004;28;20555;-46
2022/06/25 01:15:53;;;;;;;38.30;34.80;;;16.40;99.90;;;;;;5059445;28;20151;-46
2022/06/25 01:18:19;;;;;;;39.25;35.33;;;16.40;99.90;;;;;;5029301;28;20115;-46
2022/06/25 01:20:45;;;;;;;39.28;35.53;;;16.40;99.90;;;;;;5021428;28;20468;-46
2022/06/25 01:23:12;;;;;;;39.00;35.00;;;16.40;99.90;;;;;;5021588;28;20053;-44
2022/06/25 01:25:38;;;;;;;37.05;33.33;;;16.40;99.90;;;;;;5014397;28;20064;-45
2022/06/25 01:28:05;;;;;;;35.00;32.08;;;16.40;99.90;;;;;;5021406;28;20407;-47
2022/06/25 01:30:31;;;;;;;36.88;33.67;;;16.40;99.90;;;;;;5021614;28;20045;-45
2022/06/25 01:32:57;;;;;;;36.22;32.95;;;16.40;99.90;;;;;;5021719;28;20096;-45
2022/06/25 01:35:23;;;;;;;39.10;35.40;;;16.40;99.90;;;;;;5021975;28;20071;-43
2022/06/25 01:37:49;;;;;;;37.50;34.22;;;16.40;99.90;;;;;;5021215;28;20739;-45
2022/06/25 01:40:15;;;;;;;36.78;33.33;;;16.40;99.90;;;;;;5015865;28;20132;-45
2022/06/25 01:43:00;;;;;;;34.75;31.23;;;16.40;99.90;;;;;;5013471;28;20164;-48
2022/06/25 01:45:30;;;;;;;36.22;32.92;;;16.40;99.90;;;;;;5021103;28;20049;-44
2022/06/25 01:47:57;;;;;;;36.15;33.00;;;16.40;99.90;;;;;;5019511;28;20064;-46
2022/06/25 01:50:23;;;;;;;32.90;30.10;;;16.40;99.90;;;;;;5024333;28;20049;-46
2022/06/25 01:52:49;;;;;;;32.30;29.48;;;16.40;99.90;;;;;;5020151;28;20156;-44
2022/06/25 01:55:16;;;;;;;33.67;30.38;;;16.40;99.90;;;;;;5021891;28;20053;-45
2022/06/25 01:57:42;;;;;;;31.13;28.40;;;16.40;99.90;;;;;;5006775;28;20367;-45
2022/06/25 02:00:12;;;;;;;33.25;30.38;;;16.40;99.90;;;;;;5021711;28;20414;-47
2022/06/25 02:02:39;;;;;;;31.35;28.65;;;16.40;99.90;;;;;;5017607;28;20132;-51
2022/06/25 02:05:06;;;;;;;28.90;26.38;;;16.30;99.90;;;;;;5036842;28;20120;-46
2022/06/25 02:07:32;;;;;;;30.95;28.25;;;16.30;99.90;;;;;;5020774;28;20052;-44
2022/06/25 02:09:58;;;;;;;29.90;27.27;;;16.30;99.90;;;;;;5020857;28;20049;-44
2022/06/25 02:12:24;;;;;;;29.83;27.33;;;16.30;99.90;;;;;;5020145;28;20041;-45
2022/06/25 02:14:50;;;;;;;30.73;28.13;;;16.30;99.90;;;;;;5036232;28;20491;-46
2022/06/25 02:17:16;;;;;;;30.35;27.60;;;16.30;99.90;;;;;;5033005;28;20446;-46
2022/06/25 02:19:42;;;;;;;28.65;26.13;;;16.30;99.90;;;;;;5059839;28;20513;-45
2022/06/25 02:22:07;;;;;;;30.10;27.40;;;16.30;99.90;;;;;;5059774;28;20044;-47
2022/06/25 02:24:33;;;;;;;28.67;26.17;;;16.30;99.90;;;;;;5060904;28;20076;-47
2022/06/25 02:26:59;;;;;;;27.38;25.08;;;16.30;99.90;;;;;;5042232;28;20133;-45
2022/06/25 02:29:25;;;;;;;27.08;24.77;;;16.30;99.90;;;;;;5059368;28;20044;-44
2022/06/25 02:31:51;;;;;;;27.45;25.13;;;16.30;99.90;;;;;;5059080;28;20036;-46
2022/06/25 02:34:16;;;;;;;26.02;23.73;;;16.30;99.90;;;;;;5058710;28;20093;-44
2022/06/25 02:36:45;;;;;;;25.77;23.48;;;16.30;99.90;;;;;;5039634;28;20665;-43
2022/06/25 02:39:10;;;;;;;25.88;23.48;;;16.30;99.90;;;;;;5059396;28;20032;-45
2022/06/25 02:41:36;;;;;;;25.70;23.23;;;16.30;99.90;;;;;;5060048;28;20470;-45
2022/06/25 02:44:02;;;;;;;23.92;21.83;;;16.30;99.90;;;;;;5059997;28;20139;-43
2022/06/25 02:46:27;;;;;;;25.23;22.85;;;16.30;99.90;;;;;;5060256;28;20647;-45
2022/06/25 02:48:53;;;;;;;24.67;22.38;;;16.30;99.90;;;;;;5058094;28;20044;-46
2022/06/25 02:51:19;;;;;;;24.17;22.20;;;16.30;99.90;;;;;;5058956;28;20418;-45
2022/06/25 02:53:44;;;;;;;26.80;24.30;;;16.30;99.90;;;;;;5041450;28;20090;-48
2022/06/25 02:58:55;;;;;;;24.00;21.90;;;16.30;99.90;;;;;;5059726;28;20544;-46
2022/06/25 03:01:25;;;;;;;24.13;22.02;;;16.30;99.90;;;;;;5040442;28;20048;-46
2022/06/25 03:03:52;;;;;;;24.10;21.77;;;16.30;99.90;;;;;;5060061;28;20049;-46
2022/06/25 03:06:19;;;;;;;22.75;20.65;;;16.20;99.90;;;;;;5060687;28;20045;-44
2022/06/25 03:08:45;;;;;;;23.13;20.92;;;16.20;99.90;;;;;;5040817;28;20048;-45
2022/06/25 03:11:11;;;;;;;23.40;21.30;;;16.30;99.90;;;;;;5059444;28;20049;-45
2022/06/25 03:13:37;;;;;;;23.25;21.25;;;16.20;99.90;;;;;;5060619;28;20044;-45
2022/06/25 03:16:07;;;;;;;22.15;20.33;;;16.30;99.90;;;;;;5063888;28;20084;-46
2022/06/25 03:18:34;;;;;;;21.83;19.75;;;16.30;99.90;;;;;;5060835;28;20107;-45
2022/06/25 03:21:00;;;;;;;21.75;19.52;;;16.20;99.90;;;;;;5059994;28;20087;-50
2022/06/25 03:23:27;;;;;;;21.58;19.45;;;16.20;99.90;;;;;;5059510;28;20049;-45
2022/06/25 03:25:53;;;;;;;21.60;19.52;;;16.20;99.90;;;;;;5051780;28;20580;-46
2022/06/25 03:28:19;;;;;;;23.77;21.52;;;16.20;99.90;;;;;;5057945;28;20087;-44
2022/06/25 03:30:45;;;;;;;22.95;20.88;;;16.20;99.90;;;;;;5059086;28;20052;-45
2022/06/25 03:33:12;;;;;;;21.92;20.08;;;16.20;99.90;;;;;;5059571;28;20049;-46
2022/06/25 03:35:38;;;;;;;21.58;19.60;;;16.20;99.90;;;;;;5059232;28;20406;-46
2022/06/25 03:38:04;;;;;;;22.25;20.45;;;16.20;99.90;;;;;;5058397;28;20067;-46
2022/06/25 03:40:30;;;;;;;21.83;19.98;;;16.20;99.90;;;;;;5042100;28;20139;-44
2022/06/25 03:42:55;;;;;;;21.92;19.77;;;16.20;99.90;;;;;;5059718;28;20052;-45
2022/06/25 03:45:30;;;;;;;20.80;19.17;;;16.20;99.90;;;;;;5062039;28;20503;-45
2022/06/25 03:47:56;;;;;;;19.83;18.13;;;16.20;99.90;;;;;;5060491;28;20056;-48
2022/06/25 03:50:22;;;;;;;18.80;17.33;;;16.30;99.90;;;;;;5066186;28;20063;-44
2022/06/25 03:52:50;;;;;;;20.25;18.40;;;16.30;99.90;;;;;;5065819;28;20360;-46
2022/06/25 03:55:16;;;;;;;19.50;17.73;;;16.30;99.90;;;;;;5065120;28;20113;-45
2022/06/25 03:57:42;;;;;;;18.80;16.95;;;16.40;99.90;;;;;;5061842;28;20094;-46
2022/06/25 04:00:08;;;;;;;16.60;15.13;;;16.60;99.90;;;;;;5062475;28;20899;-49
2022/06/25 04:02:34;;;;;;;14.93;13.52;;;17.30;99.90;;;;;;5062748;28;20052;-44
2022/06/25 04:05:00;;;;;;;13.05;11.95;;;18.10;99.90;;;;;;5063162;28;20186;-47
2022/06/25 04:07:27;;;;;;;12.23;11.05;;;18.70;99.90;;;;;;5061838;28;20141;-47
2022/06/25 04:09:52;;;;;;;12.65;11.38;;;19.50;99.90;;;;;;5043407;28;20589;-45
2022/06/25 04:12:18;;;;;;;11.35;10.35;;;20.30;99.90;;;;;;5062811;28;20052;-49
2022/06/25 04:14:44;;;;;;;10.45;9.40;;;20.90;99.90;;;;;;5062931;28;20055;-45
2022/06/25 04:17:10;;;;;;;9.82;8.93;;;21.50;99.90;;;;;;5061332;28;20052;-47
2022/06/25 04:19:40;;;;;;;9.13;8.43;;;22.00;99.90;;;;;;5062976;28;20063;-45
2022/06/25 04:22:14;;;;;;;9.05;8.23;;;22.20;99.90;;;;;;5062945;28;20075;-45
2022/06/25 04:24:40;;;;;;;8.80;8.15;;;22.60;99.90;;;;;;5063612;28;20044;-47
2022/06/25 04:27:07;;;;;;;9.13;8.43;;;22.90;99.90;;;;;;5044427;28;20067;-44
2022/06/25 04:29:33;;;;;;;9.18;8.35;;;23.30;99.90;;;;;;5063494;28;20165;-44
2022/06/25 04:31:59;;;;;;;8.48;7.68;;;23.40;99.90;;;;;;5049200;28;20131;-46
2022/06/25 04:34:25;;;;;;;8.20;7.60;;;23.60;99.90;;;;;;5066578;28;20040;-45
2022/06/25 04:36:51;;;;;;;8.38;7.63;;;23.60;99.90;;;;;;5045174;28;20113;-45
2022/06/25 04:39:16;;;;;;;8.27;7.47;;;23.90;99.90;;;;;;5063793;28;20641;-49
2022/06/25 04:41:43;;;;;;;8.38;7.57;;;24.00;99.90;;;;;;5062978;28;20518;-46
2022/06/25 04:44:09;;;;;;;7.65;7.05;;;24.50;99.90;;;;;;5062023;28;20075;-49
2022/06/25 04:46:34;;;;;;;7.90;7.10;;;24.90;99.90;;;;;;5062628;28;20452;-48
2022/06/25 04:49:00;;;;;;;7.93;7.07;;;25.20;99.90;;;;;;5061990;28;20063;-45
2022/06/25 04:51:28;;;;;;;8.00;7.40;;;25.60;99.90;;;;;;5061399;28;20127;-48
2022/06/25 04:53:57;;;;;;;7.50;6.80;;;26.00;99.90;;;;;;5061791;28;20577;-49
2022/06/25 04:56:25;;;;;;;7.82;6.45;;;26.30;99.90;;;;;;5061717;28;20049;-45
2022/06/25 04:58:51;;;;;;;7.82;7.03;;;26.60;99.90;;;;;;5062486;28;20090;-47
2022/06/25 05:01:17;;;;;;;7.95;6.25;;;26.70;99.90;;;;;;5062943;28;20115;-47
2022/06/25 05:03:43;;;;;;;7.45;6.70;;;26.80;99.90;;;;;;5062206;28;20053;-47
2022/06/25 05:06:09;;;;;;;8.07;6.20;;;27.20;99.90;;;;;;5061706;28;20464;-46
2022/06/25 05:08:35;;;;;;;6.30;5.80;;;27.20;99.90;;;;;;5060458;28;20045;-46
2022/06/25 05:11:01;;;;;;;7.97;6.75;;;27.40;99.90;;;;;;5060851;28;20044;-46
2022/06/25 05:13:27;;;;;;;7.30;6.10;;;27.60;99.90;;;;;;5061695;28;20048;-47
2022/06/25 05:15:52;;;;;;;8.32;6.07;;;27.80;99.90;;;;;;5062529;28;20490;-48
2022/06/25 05:18:18;;;;;;;8.70;5.82;;;28.40;99.90;;;;;;5061525;28;20052;-47
2022/06/25 05:20:45;;;;;;;7.57;5.35;;;28.80;99.90;;;;;;5040242;28;20139;-46
2022/06/25 05:23:12;;;;;;;6.55;5.90;;;29.30;99.90;;;;;;5059275;28;20098;-45
2022/06/25 05:25:39;;;;;;;6.22;5.70;;;29.60;99.90;;;;;;5061043;28;20052;-48
2022/06/25 05:28:05;;;;;;;7.72;6.30;;;29.50;98.80;;;;;;5061537;28;20048;-48
2022/06/25 05:30:32;;;;;;;6.60;5.90;;;28.70;98.90;;;;;;5061086;28;20067;-45
2022/06/25 05:32:58;;;;;;;6.60;6.00;;;29.00;99.90;;;;;;5062341;28;20304;-48
2022/06/25 05:35:24;;;;;;;6.40;5.80;;;29.20;99.50;;;;;;5062055;28;20118;-50
2022/06/25 05:37:50;;;;;;;6.75;6.03;;;29.50;99.40;;;;;;5062195;28;20595;-49
2022/06/25 05:40:16;;;;;;;6.88;6.28;;;29.60;99.00;;;;;;5061142;28;20529;-49
2022/06/25 05:42:42;;;;;;;5.97;5.50;;;29.70;97.70;;;;;;5061127;28;20055;-48
2022/06/25 05:45:09;;;;;;;7.47;5.70;;;29.80;98.00;;;;;;5060430;28;20055;-46
2022/06/25 05:47:35;;;;;;;7.07;5.97;;;29.30;97.90;;;;;;5056397;28;20052;-48
2022/06/25 05:50:01;;;;;;;6.82;5.82;;;29.30;98.20;;;;;;5039736;28;20134;-49
2022/06/25 05:52:26;;;;;;;6.00;5.50;;;29.70;98.50;;;;;;5059495;28;20036;-46
2022/06/25 05:54:52;;;;;;;6.28;5.55;;;29.90;97.70;;;;;;5063569;28;20165;-46
2022/06/25 05:57:19;;;;;;;6.88;6.18;;;30.00;97.20;;;;;;5044417;28;20136;-48
2022/06/25 05:59:45;;;;;;;6.72;4.80;;;30.10;96.80;;;;;;5042379;28;20054;-52
2022/06/25 06:02:11;;;;;;;8.73;5.30;;;30.90;97.20;;;;;;5060997;28;20811;-46
2022/06/25 06:04:37;;;;;;;5.47;4.97;;;31.00;96.40;;;;;;5041710;28;20057;-46
2022/06/25 06:07:04;;;;;;;6.25;5.22;;;30.70;96.30;;;;;;5058586;28;20060;-47
2022/06/25 06:09:32;;;;;;;8.02;5.68;;;30.50;96.30;;;;;;5060405;28;20603;-46
2022/06/25 06:11:58;;;;;;;9.65;5.90;;;30.10;96.70;;;;;;5060515;28;20511;-47
2022/06/25 06:14:24;;;;;;;8.70;5.50;;;29.60;96.60;;;;;;5061030;28;20068;-51
2022/06/25 06:16:49;;;;;;;6.85;5.32;;;29.70;97.20;;;;;;5057436;28;20076;-48
2022/06/25 06:19:16;;;;;;;6.72;5.18;;;30.10;96.70;;;;;;5020090;28;20471;-50
2022/06/25 06:21:42;;;;;;;6.30;5.28;;;30.10;96.00;;;;;;5020524;28;20084;-49
2022/06/25 06:24:07;;;;;;;8.77;5.88;;;30.40;95.80;;;;;;5016047;28;20145;-48
2022/06/25 06:26:34;;;;;;;7.82;4.90;;;31.00;95.50;;;;;;5018512;28;20046;-48
2022/06/25 06:29:00;;;;;;;7.20;5.00;;;31.60;95.80;;;;;;5020448;28;20057;-49
2022/06/25 06:31:25;;;;;;;6.70;4.38;;;32.00;94.60;;;;;;5020000;28;20053;-49
2022/06/25 06:33:51;;;;;;;5.25;4.75;;;32.00;93.80;;;;;;5019680;28;20136;-48
2022/06/25 06:36:17;;;;;;;6.53;4.53;;;32.00;94.30;;;;;;5020166;28;20084;-47
2022/06/25 06:38:43;;;;;;;4.15;3.80;;;31.70;94.20;;;;;;5019780;28;20076;-49
2022/06/25 06:41:08;;;;;;;8.65;4.32;;;31.90;94.20;;;;;;5012692;28;20096;-51
2022/06/25 06:43:34;;;;;;;5.35;4.50;;;31.50;94.00;;;;;;5021104;28;20053;-50
2022/06/25 06:46:00;;;;;;;5.07;4.07;;;31.00;94.50;;;;;;5020900;28;20053;-46
2022/06/25 06:48:26;;;;;;;8.23;4.80;;;30.60;94.50;;;;;;5020148;28;20045;-47
2022/06/25 06:50:52;;;;;;;7.18;4.30;;;30.70;95.20;;;;;;5010584;28;20512;-47
2022/06/25 06:53:20;;;;;;;5.57;3.80;;;30.80;94.80;;;;;;5001857;28;20389;-50
2022/06/25 06:55:46;;;;;;;4.40;3.75;;;31.00;94.50;;;;;;5020723;28;20491;-48
2022/06/25 06:58:12;;;;;;;6.80;4.00;;;31.00;94.10;;;;;;5019973;28;20449;-47
2022/06/25 07:00:38;;;;;;;5.70;4.25;;;30.90;93.80;;;;;;5001159;28;20057;-49
2022/06/25 07:03:04;;;;;;;6.53;4.20;;;30.80;94.20;;;;;;5020471;28;20053;-50
2022/06/25 07:05:33;;;;;;;9.13;4.00;;;30.50;94.80;;;;;;5020964;28;20440;-50
2022/06/25 07:07:58;;;;;;;6.45;4.28;;;30.20;94.50;;;;;;5020444;28;20045;-48
2022/06/25 07:10:24;;;;;;;8.60;3.85;;;30.30;94.30;;;;;;4999179;28;20046;-47
2022/06/25 07:12:50;;;;;;;6.75;3.85;;;30.40;94.30;;;;;;5020288;28;20570;-47
2022/06/25 07:15:15;;;;;;;7.63;4.00;;;30.50;93.80;;;;;;5013952;28;20057;-48
2022/06/25 07:17:42;;;;;;;4.63;3.67;;;30.80;93.90;;;;;;5022038;28;20544;-48
2022/06/25 07:20:09;;;;;;;5.82;3.72;;;31.10;94.10;;;;;;5017241;28;20140;-48
2022/06/25 07:22:34;;;;;;;10.48;5.10;;;31.20;93.80;;;;;;5027423;28;20099;-52
2022/06/25 07:25:00;;;;;;;7.80;4.30;;;31.10;93.70;;;;;;5025512;28;20346;-51
2022/06/25 07:27:26;;;;;;;8.52;4.70;;;30.50;93.00;;;;;;5007010;28;20450;-50
2022/06/25 07:29:52;;;;;;;8.25;4.50;;;29.90;93.80;;;;;;5022019;28;20048;-48
2022/06/25 07:32:17;;;;;;;7.13;4.53;;;29.50;94.30;;;;;;5023737;28;20049;-46
2022/06/25 07:34:43;;;;;;;7.93;4.50;;;29.00;95.40;;;;;;5016747;28;20050;-50
2022/06/25 07:37:09;;;;;;;8.85;5.10;;;29.10;95.60;;;;;;5024404;28;20103;-49
2022/06/25 07:39:35;;;;;;;7.80;4.53;;;28.70;95.50;;;;;;5018666;28;20144;-50
2022/06/25 07:42:01;;;;;;;8.48;5.15;;;28.60;95.90;;;;;;5023725;28;20081;-51
2022/06/25 07:44:26;;;;;;;9.35;5.43;;;28.70;96.10;;;;;;4988790;28;20492;-49
2022/06/25 07:46:53;;;;;;;7.68;5.10;;;28.80;96.20;;;;;;4987768;28;20128;-47
2022/06/25 07:49:19;;;;;;;9.32;5.00;;;28.90;96.20;;;;;;5023346;28;20124;-49
2022/06/25 07:51:57;;;;;;;8.90;4.70;;;28.70;96.10;;;;;;5020481;28;20565;-49
2022/06/25 07:54:28;;;;;;;5.22;3.58;;;28.70;95.90;;;;;;5021492;28;20538;-48
2022/06/25 07:56:54;;;;;;;7.20;4.53;;;28.80;95.90;;;;;;5002609;28;20045;-46
2022/06/25 07:59:21;;;;;;;6.28;4.15;;;28.70;96.00;;;;;;5022505;28;20269;-48
2022/06/25 08:01:47;;;;;;;8.40;4.80;;;28.50;96.20;;;;;;5004256;28;20077;-47
2022/06/25 08:04:13;;;;;;;7.07;5.00;;;28.50;96.90;;;;;;5005670;28;20061;-47
2022/06/25 08:06:41;;;;;;;7.72;4.60;;;28.30;96.50;;;;;;5002700;28;20057;-48
2022/06/25 08:09:08;;;;;;;5.68;4.97;;;28.60;96.70;;;;;;5022992;28;20547;-46
2022/06/25 08:11:35;;;;;;;5.47;4.30;;;28.70;96.90;;;;;;5021259;28;20570;-49
2022/06/25 08:14:01;;;;;;;7.20;4.25;;;28.80;96.70;;;;;;5021910;28;20092;-48
2022/06/25 08:16:27;;;;;;;7.78;4.68;;;28.70;96.10;;;;;;5021404;28;20128;-52
2022/06/25 08:18:53;;;;;;;5.40;4.40;;;28.50;96.00;;;;;;5034088;28;20096;-48
2022/06/25 08:21:20;;;;;;;8.88;4.15;;;28.60;96.60;;;;;;5022427;28;20232;-47
2022/06/25 08:23:46;;;;;;;5.80;4.35;;;28.70;96.90;;;;;;5021678;28;20259;-47
2022/06/25 08:26:12;;;;;;;5.18;3.58;;;28.60;97.20;;;;;;5018433;28;20406;-49
2022/06/25 08:28:37;;;;;;;6.95;3.97;;;28.40;96.00;;;;;;5022817;28;20107;-49
2022/06/25 08:31:06;;;;;;;4.03;3.40;;;28.00;95.50;;;;;;5021764;28;20060;-45
2022/06/25 08:33:32;;;;;;;5.97;3.95;;;27.60;95.40;;;;;;5022737;28;20045;-52
2022/06/25 08:35:57;;;;;;;4.85;3.92;;;27.40;96.30;;;;;;5023326;28;20507;-46
2022/06/25 08:38:23;;;;;;;5.68;4.93;;;27.40;96.80;;;;;;5021132;28;20120;-47
2022/06/25 08:40:54;;;;;;;8.13;3.97;;;27.30;96.80;;;;;;5021060;28;20049;-47
2022/06/25 08:43:20;;;;;;;4.97;3.55;;;27.00;96.50;;;;;;5022413;28;20049;-46
2022/06/25 08:45:46;;;;;;;5.80;4.03;;;27.10;96.60;;;;;;5021209;28;20056;-48
2022/06/25 08:48:22;;;;;;;8.85;4.05;;;27.10;97.30;;;;;;5022969;28;20079;-45
2022/06/25 08:50:49;;;;;;;8.75;4.28;;;27.10;98.30;;;;;;5024575;28;20049;-49
2022/06/25 08:53:15;;;;;;;8.07;4.05;;;27.20;97.90;;;;;;5023477;28;20159;-49
2022/06/25 08:55:44;;;;;;;7.28;3.88;;;27.00;97.50;;;;;;5025390;28;20068;-49
2022/06/25 08:58:09;;;;;;;9.05;3.90;;;27.10;98.00;;;;;;5023353;28;20053;-47
2022/06/25 09:00:38;;;;;;;8.68;3.95;;;26.90;96.90;;;;;;5022586;28;20049;-49
2022/06/25 09:03:06;;;;;;;6.78;3.90;;;26.90;97.60;;;;;;5022704;28;20072;-50
2022/06/25 09:05:34;;;;;;;7.20;4.75;;;27.10;98.10;;;;;;5022310;28;20439;-47
2022/06/25 09:08:03;;;;;;;5.15;4.00;;;27.30;98.00;;;;;;5021570;28;20587;-48
2022/06/25 09:10:29;;;;;;;5.43;4.43;;;27.40;98.40;;;;;;5021724;28;20064;-46
2022/06/25 09:12:58;;;;;;;7.00;3.60;;;27.10;96.70;;;;;;5023034;28;20136;-49
2022/06/25 09:15:28;;;;;;;7.93;3.97;;;27.30;97.80;;;;;;5022298;28;20096;-49
2022/06/25 09:17:54;;;;;;;5.68;3.83;;;27.20;96.90;;;;;;5030456;28;20091;-49
2022/06/25 09:20:21;;;;;;;5.03;3.13;;;27.00;97.80;;;;;;5041300;28;20159;-51
2022/06/25 09:23:03;;;;;;;6.68;3.40;;;26.70;97.20;;;;;;5038891;28;20084;-46
2022/06/25 09:25:31;;;;;;;5.10;2.95;;;26.50;97.60;;;;;;5057603;28;20084;-46
2022/06/25 09:27:57;;;;;;;5.05;3.70;;;26.40;97.40;;;;;;5058927;28;20041;-50
2022/06/25 09:30:26;;;;;;;5.80;3.65;;;26.50;98.40;;;;;;5060235;28;20048;-47
2022/06/25 09:32:58;;;;;;;3.85;2.33;;;26.50;98.00;;;;;;5060355;28;20048;-51
2022/06/25 09:35:31;;;;;;;5.70;2.33;;;26.70;97.60;;;;;;5059196;28;20049;-48
2022/06/25 09:38:11;;;;;;;5.05;2.67;;;26.70;97.60;;;;;;5056807;28;20040;-47
2022/06/25 09:40:42;;;;;;;3.78;2.60;;;26.70;98.10;;;;;;5038438;28;20424;-47
2022/06/25 09:43:15;;;;;;;4.63;2.85;;;27.00;98.50;;;;;;5058574;28;20422;-46
2022/06/25 09:45:46;;;;;;;3.20;2.30;;;27.00;98.20;;;;;;5048450;28;20159;-49
2022/06/25 09:48:25;;;;;;;4.68;3.15;;;27.00;98.50;;;;;;5041370;28;20449;-46
2022/06/25 09:51:12;;;;;;;4.05;2.38;;;26.60;98.00;;;;;;5057988;28;20056;-47
2022/06/25 09:53:55;;;;;;;7.47;2.45;;;26.20;97.60;;;;;;5060392;28;20079;-47
2022/06/25 09:56:23;;;;;;;4.05;2.38;;;26.20;99.00;;;;;;5057315;28;20043;-49
2022/06/25 09:58:50;;;;;;;4.68;2.38;;;26.00;97.80;;;;;;5059214;28;20044;-45
2022/06/25 10:01:18;;;;;;;4.25;2.17;;;25.90;99.10;;;;;;5060962;28;20386;-46
2022/06/25 10:03:46;;;;;;;4.28;2.47;;;25.90;98.70;;;;;;5058782;28;20055;-46
2022/06/25 10:06:18;;;;;;;4.82;2.40;;;25.90;98.80;;;;;;5059778;28;20671;-46
2022/06/25 10:08:48;;;;;;;3.65;2.15;;;25.70;98.70;;;;;;5058146;28;20495;-48
2022/06/25 10:11:16;;;;;;;6.95;2.30;;;25.70;98.90;;;;;;5035237;28;20041;-46
2022/06/25 10:13:42;;;;;;;4.22;2.38;;;25.80;99.20;;;;;;5042336;28;20040;-48
2022/06/25 10:16:08;;;;;;;3.90;2.25;;;25.60;99.00;;;;;;5040786;28;20052;-48
2022/06/25 10:18:36;;;;;;;4.57;2.10;;;25.50;99.70;;;;;;5053580;28;20049;-47
2022/06/25 10:21:02;;;;;;;4.57;2.33;;;25.40;99.20;;;;;;5035362;28;20135;-51
2022/06/25 10:23:29;;;;;;;3.78;2.40;;;25.10;99.10;;;;;;5065752;28;20044;-46
2022/06/25 10:25:55;;;;;;;7.93;2.50;;;24.90;99.70;;;;;;5061299;28;20087;-48
2022/06/25 10:28:26;;;;;;;5.07;2.30;;;24.90;99.90;;;;;;5061099;28;20056;-51
2022/06/25 10:30:54;;;;;;;6.80;2.88;;;25.00;99.80;;;;;;5053045;28;20507;-46
2022/06/25 10:33:22;;;;;;;5.68;2.22;;;24.80;99.50;;;;;;5054133;28;20044;-49
2022/06/25 10:35:50;;;;;;;5.20;2.58;;;24.70;99.90;;;;;;5060331;28;20078;-46
2022/06/25 10:38:23;;;;;;;4.28;2.40;;;24.90;99.90;;;;;;5059161;28;20055;-46
2022/06/25 10:40:57;;;;;;;4.53;2.60;;;25.00;99.90;;;;;;5056501;28;20714;-46
2022/06/25 10:43:39;;;;;;;3.97;2.70;;;25.10;99.90;;;;;;5041643;28;20064;-46
2022/06/25 10:46:23;;;;;;;9.38;2.55;;;24.80;99.60;;;;;;5039755;28;20061;-46
2022/06/25 10:48:56;;;;;;;3.45;2.00;;;24.70;99.90;;;;;;5057299;28;20044;-48
2022/06/25 10:51:51;;;;;;;4.07;2.85;;;24.60;99.90;;;;;;5060430;28;20055;-48
2022/06/25 10:54:23;;;;;;;5.53;2.80;;;24.40;99.90;;;;;;4961248;28;20152;-49
2022/06/25 10:56:51;;;;;;;5.82;2.78;;;24.30;99.90;;;;;;4958869;28;20561;-46
2022/06/25 10:59:35;;;;;;;5.63;2.67;;;24.30;99.90;;;;;;4974310;28;20510;-46
2022/06/25 11:02:03;;;;;;;5.07;2.40;;;24.50;99.90;;;;;;4962524;28;20066;-47
2022/06/25 11:04:30;;;;;;;6.45;2.70;;;25.00;99.90;;;;;;4957222;28;20065;-47
2022/06/25 11:07:13;;;;;;;6.40;3.20;;;25.50;99.90;;;;;;4974633;28;20050;-46
2022/06/25 11:09:50;;;;;;;6.93;3.50;;;25.80;99.90;;;;;;4976429;28;20088;-46
2022/06/25 11:12:17;;;;;;;4.63;2.90;;;26.10;99.90;;;;;;4977458;28;20054;-46
2022/06/25 11:14:43;;;;;;;3.60;2.92;;;26.20;99.90;;;;;;4977425;28;20425;-46
2022/06/25 11:17:10;;;;;;;5.93;3.35;;;26.00;99.90;;;;;;4976780;28;20050;-46
2022/06/25 11:19:41;;;;;;;5.28;3.35;;;26.00;99.90;;;;;;4977229;28;20054;-50
2022/06/25 11:22:06;;;;;;;11.55;4.30;;;25.80;99.90;;;;;;4977434;28;20085;-49
2022/06/25 11:24:33;;;;;;;8.20;3.13;;;25.80;99.90;;;;;;4977179;28;20046;-48
2022/06/25 11:29:51;;;;;;;4.60;3.28;;;25.50;99.90;;;;;;4983021;28;20065;-47
2022/06/25 11:32:25;;;;;;;3.50;3.00;;;25.40;99.90;;;;;;5039253;28;20115;-48
2022/06/25 11:34:56;;;;;;;4.95;3.35;;;25.20;99.90;;;;;;5039607;28;20053;-46
2022/06/25 11:37:22;;;;;;;4.63;3.05;;;24.90;99.90;;;;;;5039804;28;20049;-47
2022/06/25 11:39:48;;;;;;;4.82;2.67;;;24.70;99.90;;;;;;5031003;28;20049;-50
2022/06/25 11:42:15;;;;;;;4.75;2.53;;;24.50;99.90;;;;;;5038762;28;20052;-47
2022/06/25 11:44:44;;;;;;;3.35;2.53;;;24.20;99.90;;;;;;5038391;28;20049;-47
2022/06/25 11:47:20;;;;;;;3.00;2.50;;;24.00;99.90;;;;;;5039085;28;20065;-47
2022/06/25 11:49:47;;;;;;;4.85;2.45;;;23.80;99.90;;;;;;5040460;28;20048;-48
2022/06/25 11:52:14;;;;;;;5.05;2.55;;;23.70;99.90;;;;;;5042415;28;20052;-48
2022/06/25 11:54:42;;;;;;;2.58;2.10;;;23.70;99.90;;;;;;5041812;28;20073;-48
2022/06/25 11:57:10;;;;;;;7.88;4.65;;;23.70;99.90;;;;;;5041013;28;20056;-51
2022/06/25 11:59:38;;;;;;;7.25;5.80;;;23.60;99.90;;;;;;5034049;28;20041;-45
2022/06/25 12:02:05;;;;;;;9.15;6.07;;;23.50;99.90;;;;;;5039051;28;20069;-47
2022/06/25 12:04:53;;;;;;;8.93;6.65;;;23.50;99.90;;;;;;5037833;28;20056;-46
2022/06/25 12:07:31;;;;;;;6.63;6.03;;;23.50;99.90;;;;;;5049900;28;20438;-45
2022/06/25 12:10:00;;;;;;;7.32;6.38;;;23.60;99.90;;;;;;5040513;28;20067;-47
2022/06/25 12:12:27;;;;;;;6.85;6.15;;;23.80;99.90;;;;;;5042521;28;20049;-48
2022/06/25 12:14:54;;;;;;;7.53;6.82;;;24.00;99.90;;;;;;5046843;28;20057;-47
2022/06/25 12:17:20;;;;;;;8.32;7.55;;;24.40;99.90;;;;;;5046153;28;20529;-48
2022/06/25 12:19:51;;;;;;;8.50;6.25;;;24.70;99.90;;;;;;5062788;28;20052;-48
2022/06/25 12:22:25;;;;;;;7.07;6.35;;;25.20;99.90;;;;;;5063126;28;20052;-46
2022/06/25 12:24:53;;;;;;;4.78;3.90;;;25.60;99.90;;;;;;5063117;28;20115;-47
2022/06/25 12:27:19;;;;;;;4.78;3.20;;;25.50;99.90;;;;;;5062510;28;20655;-47
2022/06/25 12:29:48;;;;;;;4.97;3.42;;;25.60;99.90;;;;;;5063155;28;20131;-46
2022/06/25 12:32:14;;;;;;;5.30;3.17;;;25.60;99.90;;;;;;5044664;28;20050;-46
2022/06/25 12:34:48;;;;;;;3.38;2.60;;;25.50;99.90;;;;;;5043791;28;20102;-46
2022/06/25 12:37:31;;;;;;;7.07;3.35;;;25.50;99.90;;;;;;5057586;28;20124;-45
2022/06/25 12:39:57;;;;;;;;;;;25.50;99.90;;;;;;5057550;28;20083;-48
2022/06/25 12:42:24;;;;;;;4.05;2.40;;;25.50;99.90;;;;;;5062222;28;19928;-47
2022/06/25 12:44:50;;;;;;;4.88;3.28;;;25.70;99.90;;;;;;5045211;28;20542;-45
2022/06/25 12:47:18;;;;;;;3.97;2.50;;;25.90;99.90;;;;;;5062638;28;20075;-46
2022/06/25 12:49:50;;;;;;;2.65;2.08;;;26.00;99.90;;;;;;5062959;28;20139;-47
2022/06/25 12:52:38;;;;;;;4.30;2.43;;;26.10;99.90;;;;;;5062178;28;20052;-47
2022/06/25 12:55:06;;;;;;;4.53;2.45;;;26.10;99.90;;;;;;5061522;28;20052;-48